YVO weather

Val-d'Or Airport
Val-d'Or, Quebec, Canada

Public forecast

Using degrees Celsius for public forecast. Weather courtesy of forecast.io.

Current aviation weather report (METAR) for Val-d'Or Airport

Retrieved 2019/11/20 23:00 UTC (24 minutes ago):

CYVO 202300Z 26003KT 210V300 10SM BKN005 OVC011 01/00 A3009 RMK SF6SC2 SLP213

Aviation forecast (TAF) for Val-d'Or Airport

Retrieved 2019/11/20 18:00 UTC (5 hours ago):

TAF CYVO 201743Z 2018/2106 VRB03KT P6SM OVC015 TEMPO 2018/2104 SCT015 BKN025 FM210400 19006KT P6SM SCT006 OVC012 TEMPO 2104/2106 4SM BR BKN005 OVC010 RMK NXT FCST BY 210000Z